KFPK

Details ICAO KFPK
Name FITCH H BEACH
Region United States
Timezone America/Detroit (UTC-5.0)
Plans Departing 1
Arriving 1
Stats Elevation 891 ft / 272 m (AMSL)
Location 42.573972° -84.812244°
Runways 2
Magnetic Variation 6.263° W
Sunrise 2017-12-15 13:03:44 UTC / 2017-12-15 08:03:44 Local
Sunset 2017-12-15 22:08:05 UTC / 2017-12-15 17:08:05 Local
Advertisement - Login to hide

Runways

ID Width Length Bearing (true) Bearing (mag) Surface Threshold Offset Overrun Length
02 75 ft / 23 m 3,512 ft / 1,071 m 20.54° 26.80° Concrete 0 ft / 0 m 0 ft / 0 m
14 100 ft / 30 m 2,317 ft / 706 m 140.14° 146.40° Grass 575 ft / 175 m 0 ft / 0 m
20 75 ft / 23 m 3,512 ft / 1,071 m 200.54° 206.80° Concrete 0 ft / 0 m 0 ft / 0 m
32 100 ft / 30 m 2,317 ft / 706 m 320.14° 326.40° Grass 189 ft / 58 m 0 ft / 0 m

Map

Weather


0- 5 10 15 20 25 30 35+ Temperature / ° C

Clouds and Precipitation
Forecast for 2017-12-16 00:00 UTC. Updated 29 minutes ago

Ground ~20,000 ft ~40,000 ft Winds

METAR

KFPK 152335Z AUTO 28009KT 10SM SCT035 BKN043 M04/M10 A2984 RMK AO2 T10381096

TAF

Not found

Frequencies

Recorded 118.07 MHz AWOS 3
Approach 118.65 MHz LANSING APP/DEP
Unicom 123.00 MHz CTAF/UNICOM
Warning: Do not use this data for real-world aviation or navigation. No guarantee of current accuracy is given.